Palmer, Massachusetts
Current Conditions -  °F | °C
As of 7:58 PM on Sunday 21 Dec 2014 (Local Time) from KCEF Reporting Station
Overcast Overcast  
Wind Chill: 32°   Ceiling: 1400
Heat Index: 32°   Visibility: 10mi
Dew Point: 30°   Wind: 3mph
Humidity: 92%   Direction: 360°N
Pressure: 30.34"   Gusts: NA
Location:  42.16°N, 72.32°W
Report Text: KCEF 220058Z AUTO 36003KT 10SM OVC014 00/M01 A3034 RMK AO2 SLP283 T00011011
Loading
Personal Weather Stations






























Interactive Weather Map New forecast layout! Learn more

10-Day Weather Forecast

Advertisements
Track Severe Weather on mobile